createdAt,value
2018-09-09T00:09:48.990Z,32.8
2018-09-09T00:20:02.251Z,36.9
2018-09-09T00:30:16.495Z,27.7
2018-09-09T00:40:30.842Z,30.7
2018-09-09T00:50:45.179Z,30.2
2018-09-09T01:00:59.808Z,31.4
2018-09-09T01:11:11.347Z,34.2
2018-09-09T01:21:25.435Z,31.3
2018-09-09T01:31:36.504Z,29.2
2018-09-09T01:41:48.003Z,39.8
2018-09-09T01:52:01.913Z,38.5
2018-09-09T02:02:15.188Z,33.7
2018-09-09T02:12:28.711Z,42.1
2018-09-09T02:22:42.711Z,32.7
2018-09-09T02:32:56.119Z,32.0
2018-09-09T02:43:10.544Z,37.9
2018-09-09T02:53:25.081Z,35.0
2018-09-09T03:03:38.523Z,30.8
2018-09-09T03:13:51.684Z,33.2
2018-09-09T03:24:05.080Z,39.9
2018-09-09T03:34:19.210Z,37.6
2018-09-09T03:44:32.908Z,44.4
2018-09-09T03:54:46.926Z,33.7
2018-09-09T04:05:01.594Z,30.8
2018-09-09T04:15:15.544Z,33.6
2018-09-09T04:25:29.292Z,30.7
2018-09-09T04:35:42.762Z,30.8
2018-09-09T04:45:56.693Z,44.9
2018-09-09T04:56:41.384Z,35.1
2018-09-09T05:07:26.609Z,33.5
2018-09-09T05:17:37.698Z,38.6
2018-09-09T05:28:23.539Z,32.7
2018-09-09T05:38:37.705Z,29.4
2018-09-09T05:48:48.611Z,32.2
2018-09-09T05:59:02.288Z,27.7
2018-09-09T06:09:16.411Z,30.0
2018-09-09T06:19:30.696Z,30.3
2018-09-09T06:29:44.593Z,41.5
2018-09-09T06:39:57.878Z,32.4
2018-09-09T06:50:11.329Z,29.6
2018-09-09T07:27:51.454Z,30.7
2018-09-09T07:38:04.885Z,28.8
2018-09-09T07:48:19.195Z,30.6
2018-09-09T07:58:33.360Z,28.6
2018-09-09T08:08:47.234Z,27.9
2018-09-09T08:19:33.113Z,32.6
2018-09-09T08:30:18.789Z,28.9
2018-09-09T08:40:32.180Z,27.0
2018-09-09T08:50:46.388Z,27.5
2018-09-09T09:01:03.683Z,27.8
2018-09-09T09:11:17.913Z,26.3
2018-09-09T09:21:35.036Z,26.1
2018-09-09T09:32:20.583Z,24.4
2018-09-09T09:42:34.238Z,25.6
2018-09-09T09:52:46.298Z,23.6
2018-09-09T10:03:01.770Z,23.6
2018-09-09T10:13:16.223Z,24.6
2018-09-09T10:23:29.916Z,23.4
2018-09-09T10:34:15.580Z,24.0
2018-09-09T10:45:02.064Z,23.1
2018-09-09T10:55:15.545Z,33.4
2018-09-09T11:05:29.958Z,22.9
2018-09-09T11:15:44.685Z,22.8
2018-09-09T11:25:58.534Z,22.8
2018-09-09T11:36:25.289Z,21.9
2018-09-09T11:46:37.543Z,22.9
2018-09-09T11:56:51.600Z,22.1
2018-09-09T12:07:05.218Z,21.7
2018-09-09T12:17:19.665Z,21.7
2018-09-09T12:27:33.635Z,26.6
2018-09-09T12:38:26.102Z,22.2
2018-09-09T12:49:50.222Z,23.4
2018-09-09T13:00:03.851Z,22.6
2018-09-09T13:10:17.251Z,25.7
2018-09-09T13:20:31.960Z,22.9
2018-09-09T13:30:45.596Z,23.9
2018-09-09T13:41:00.054Z,26.1
2018-09-09T13:51:14.064Z,23.1
2018-09-09T14:01:27.599Z,23.0
2018-09-09T14:11:41.500Z,23.0
2018-09-09T14:21:55.830Z,23.1
2018-09-09T14:32:09.900Z,24.1
2018-09-09T14:42:23.979Z,30.8
2018-09-09T14:52:37.606Z,23.8
2018-09-09T15:02:52.205Z,23.6
2018-09-09T15:13:05.818Z,24.6
2018-09-09T15:23:19.971Z,24.5
2018-09-09T15:33:31.119Z,24.8
2018-09-09T15:43:45.868Z,25.6
2018-09-09T15:54:32.916Z,24.5
2018-09-09T16:04:47.418Z,25.4
2018-09-09T16:15:01.991Z,25.8
2018-09-09T16:25:48.167Z,26.1
2018-09-09T16:36:32.854Z,25.8
2018-09-09T16:47:17.798Z,26.9
2018-09-09T16:57:33.027Z,27.6
2018-09-09T17:08:19.286Z,29.8
2018-09-09T17:18:33.610Z,28.0
2018-09-09T17:28:50.272Z,26.2
2018-09-09T17:39:06.679Z,26.7
2018-09-09T17:49:21.982Z,26.1
2018-09-09T18:00:07.541Z,27.9
2018-09-09T18:10:58.920Z,27.8
2018-09-09T18:21:13.888Z,25.8
2018-09-09T18:31:28.425Z,26.0
2018-09-09T18:41:45.731Z,33.7
2018-09-09T18:51:57.233Z,26.2
2018-09-09T19:02:11.397Z,32.9
2018-09-09T19:12:26.256Z,28.0
2018-09-09T19:22:39.633Z,26.1
2018-09-09T19:32:54.381Z,27.3
2018-09-09T19:43:08.065Z,28.5
2018-09-09T19:53:22.391Z,27.0
2018-09-09T20:03:36.359Z,26.9
2018-09-09T20:14:08.312Z,27.4
2018-09-09T20:24:22.356Z,29.0
2018-09-09T20:34:36.090Z,27.5
2018-09-09T20:44:51.094Z,29.3
2018-09-09T20:55:04.370Z,27.8
2018-09-09T21:05:15.725Z,27.3
2018-09-09T21:15:27.348Z,26.6
2018-09-09T21:25:41.190Z,30.4
2018-09-09T21:35:52.842Z,34.9
2018-09-09T21:46:38.137Z,27.7
2018-09-09T21:57:06.738Z,28.8
2018-09-09T22:07:21.026Z,35.5
2018-09-09T22:17:34.969Z,37.4
2018-09-09T22:27:48.486Z,28.3
2018-09-09T22:38:03.860Z,28.2
2018-09-09T22:48:17.768Z,30.3
2018-09-09T22:58:54.695Z,28.2
2018-09-09T23:09:39.960Z,30.3
2018-09-09T23:19:54.607Z,28.6
2018-09-09T23:30:08.348Z,28.5
2018-09-09T23:40:21.775Z,29.1
2018-09-09T23:50:57.274Z,27.6
